createdAt,value
2022-08-21T00:00:44.396Z,100.00
2022-08-21T00:03:12.267Z,100.00
2022-08-21T00:05:43.443Z,100.00
2022-08-21T00:08:10.279Z,100.00
2022-08-21T00:10:37.241Z,100.00
2022-08-21T00:13:07.693Z,100.00
2022-08-21T00:15:36.916Z,100.00
2022-08-21T00:18:05.691Z,100.00
2022-08-21T00:20:34.461Z,100.00
2022-08-21T00:23:01.703Z,100.00
2022-08-21T00:25:28.519Z,100.00
2022-08-21T00:27:56.410Z,100.00
2022-08-21T00:30:26.542Z,100.00
2022-08-21T00:32:54.692Z,100.00
2022-08-21T00:35:28.900Z,100.00
2022-08-21T00:37:55.777Z,100.00
2022-08-21T00:40:32.875Z,100.00
2022-08-21T00:42:59.589Z,100.00
2022-08-21T00:45:26.697Z,100.00
2022-08-21T00:47:53.581Z,100.00
2022-08-21T00:50:21.925Z,100.00
2022-08-21T00:52:51.465Z,100.00
2022-08-21T00:55:20.224Z,100.00
2022-08-21T00:57:52.236Z,100.00
2022-08-21T01:00:23.740Z,100.00
2022-08-21T01:02:50.589Z,100.00
2022-08-21T01:05:17.252Z,100.00
2022-08-21T01:07:44.329Z,100.00
2022-08-21T01:10:20.545Z,100.00
2022-08-21T01:12:53.432Z,100.00
2022-08-21T01:15:20.476Z,100.00
2022-08-21T01:17:48.368Z,100.00
2022-08-21T01:20:14.987Z,100.00
2022-08-21T01:22:41.638Z,100.00
2022-08-21T01:25:09.972Z,100.00
2022-08-21T01:27:37.366Z,100.00
2022-08-21T01:30:12.174Z,100.00
2022-08-21T01:32:38.855Z,100.00
2022-08-21T01:35:07.300Z,100.00
2022-08-21T01:37:34.569Z,100.00
2022-08-21T01:40:01.246Z,100.00
2022-08-21T01:42:27.950Z,100.00
2022-08-21T01:44:56.238Z,100.00
2022-08-21T01:47:23.410Z,100.00
2022-08-21T01:49:50.589Z,100.00
2022-08-21T01:52:17.390Z,100.00
2022-08-21T01:54:44.074Z,100.00
2022-08-21T01:57:11.553Z,100.00
2022-08-21T01:59:38.280Z,100.00
2022-08-21T02:02:05.958Z,100.00
2022-08-21T02:04:33.482Z,100.00
2022-08-21T02:07:01.363Z,100.00
2022-08-21T02:09:28.634Z,100.00
2022-08-21T02:11:56.218Z,100.00
2022-08-21T02:14:28.636Z,100.00
2022-08-21T02:17:09.512Z,100.00
2022-08-21T02:19:39.990Z,100.00
2022-08-21T02:22:11.249Z,100.00
2022-08-21T02:24:54.173Z,100.00
2022-08-21T02:27:26.202Z,100.00
2022-08-21T02:29:55.684Z,100.00
2022-08-21T02:32:22.307Z,100.00
2022-08-21T02:34:48.997Z,100.00
2022-08-21T02:37:15.726Z,100.00
2022-08-21T02:39:42.490Z,100.00
2022-08-21T02:42:09.141Z,100.00
2022-08-21T02:44:35.753Z,100.00
2022-08-21T02:47:02.375Z,100.00
2022-08-21T02:49:29.124Z,100.00
2022-08-21T02:51:55.715Z,100.00
2022-08-21T02:54:22.331Z,100.00
2022-08-21T02:56:49.021Z,100.00
2022-08-21T02:59:15.722Z,100.00
2022-08-21T03:01:42.417Z,100.00
2022-08-21T03:04:09.211Z,100.00
2022-08-21T03:06:35.896Z,100.00
2022-08-21T03:09:03.159Z,100.00
2022-08-21T03:11:29.808Z,100.00
2022-08-21T03:13:56.459Z,100.00
2022-08-21T03:16:23.107Z,100.00
2022-08-21T03:18:49.901Z,100.00
2022-08-21T03:21:16.532Z,100.00
2022-08-21T03:23:43.216Z,100.00
2022-08-21T03:26:10.769Z,100.00
2022-08-21T03:28:37.663Z,100.00
2022-08-21T03:31:04.444Z,100.00
2022-08-21T03:33:31.065Z,100.00
2022-08-21T03:36:05.149Z,100.00
2022-08-21T03:38:34.128Z,100.00
2022-08-21T03:41:01.825Z,100.00
2022-08-21T03:43:31.271Z,100.00
2022-08-21T03:46:01.415Z,100.00
2022-08-21T03:48:28.273Z,100.00
2022-08-21T03:50:54.922Z,100.00
2022-08-21T03:53:22.207Z,100.00
2022-08-21T03:55:50.885Z,100.00
2022-08-21T03:58:20.260Z,100.00
2022-08-21T04:00:50.068Z,100.00
2022-08-21T04:03:17.095Z,100.00
2022-08-21T04:05:44.452Z,100.00
2022-08-21T04:08:11.093Z,100.00
2022-08-21T04:10:39.807Z,100.00
2022-08-21T04:13:07.682Z,100.00
2022-08-21T04:15:34.504Z,100.00
2022-08-21T04:18:01.274Z,100.00
2022-08-21T04:20:28.084Z,100.00
2022-08-21T04:22:55.302Z,100.00
2022-08-21T04:25:23.665Z,100.00
2022-08-21T04:27:50.401Z,100.00
2022-08-21T04:30:17.926Z,100.00
2022-08-21T04:32:47.065Z,100.00
2022-08-21T04:35:18.578Z,100.00
2022-08-21T04:37:45.258Z,100.00
2022-08-21T04:40:14.056Z,100.00
2022-08-21T04:42:49.677Z,100.00
2022-08-21T04:45:38.266Z,100.00
2022-08-21T04:48:12.018Z,100.00
2022-08-21T04:50:45.612Z,100.00
2022-08-21T04:53:39.935Z,100.00
2022-08-21T04:56:13.734Z,100.00
2022-08-21T04:58:40.834Z,100.00
2022-08-21T05:01:12.663Z,100.00
2022-08-21T05:03:40.461Z,100.00
2022-08-21T05:06:11.165Z,100.00
2022-08-21T05:08:38.475Z,100.00
2022-08-21T05:11:05.538Z,100.00
2022-08-21T05:13:32.483Z,100.00
2022-08-21T05:15:59.119Z,100.00
2022-08-21T05:18:25.963Z,100.00
2022-08-21T05:20:52.614Z,100.00
2022-08-21T05:23:19.293Z,100.00
2022-08-21T05:25:46.134Z,100.00
2022-08-21T05:28:13.010Z,100.00
2022-08-21T05:30:40.182Z,100.00
2022-08-21T05:33:08.048Z,100.00
2022-08-21T05:35:34.862Z,100.00
2022-08-21T05:38:01.803Z,100.00
2022-08-21T05:40:28.642Z,100.00
2022-08-21T05:42:56.606Z,100.00
2022-08-21T05:45:42.922Z,100.00
2022-08-21T05:48:19.567Z,100.00
2022-08-21T05:50:47.635Z,100.00
2022-08-21T05:53:15.863Z,100.00
2022-08-21T05:55:46.049Z,100.00
2022-08-21T05:58:15.110Z,100.00
2022-08-21T06:00:41.802Z,100.00
2022-08-21T06:03:13.249Z,100.00
2022-08-21T06:05:39.889Z,100.00
2022-08-21T06:08:06.536Z,100.00
2022-08-21T06:10:33.137Z,100.00
2022-08-21T06:12:59.870Z,100.00
2022-08-21T06:15:26.722Z,100.00
2022-08-21T06:17:55.269Z,100.00
2022-08-21T06:20:22.892Z,100.00
2022-08-21T06:22:49.660Z,100.00
2022-08-21T06:25:16.457Z,100.00
2022-08-21T06:27:43.088Z,100.00
2022-08-21T06:30:10.667Z,100.00
2022-08-21T06:32:37.460Z,100.00
2022-08-21T06:35:06.662Z,100.00
2022-08-21T06:37:33.318Z,100.00
2022-08-21T06:40:00.061Z,100.00
2022-08-21T06:42:27.949Z,100.00
2022-08-21T06:44:54.878Z,100.00
2022-08-21T06:47:21.559Z,100.00
2022-08-21T06:49:48.303Z,100.00
2022-08-21T06:52:16.454Z,100.00
2022-08-21T06:54:43.213Z,100.00
2022-08-21T06:57:09.852Z,100.00
2022-08-21T06:59:36.609Z,100.00
2022-08-21T07:02:03.528Z,100.00
2022-08-21T07:04:30.185Z,100.00
2022-08-21T07:06:56.856Z,100.00
2022-08-21T07:09:25.137Z,100.00
2022-08-21T07:11:55.033Z,100.00
2022-08-21T07:14:21.980Z,100.00
2022-08-21T07:16:49.610Z,100.00
2022-08-21T07:19:16.258Z,100.00
2022-08-21T07:21:42.893Z,100.00
2022-08-21T07:24:09.728Z,99.21
2022-08-21T07:26:37.156Z,100.00
2022-08-21T07:29:04.171Z,100.00
2022-08-21T07:31:31.068Z,99.28
2022-08-21T07:33:57.865Z,100.00
2022-08-21T07:36:24.722Z,100.00
2022-08-21T07:38:52.581Z,100.00
2022-08-21T07:41:23.178Z,100.00
2022-08-21T07:43:52.698Z,100.00
2022-08-21T07:46:20.204Z,100.00
2022-08-21T07:48:46.831Z,97.70
2022-08-21T07:51:16.241Z,99.65
2022-08-21T07:53:43.221Z,98.65
2022-08-21T07:56:10.304Z,96.83
2022-08-21T07:58:36.916Z,96.04
2022-08-21T08:01:03.642Z,97.13
2022-08-21T08:03:30.309Z,93.97
2022-08-21T08:05:57.747Z,93.95
2022-08-21T08:08:25.107Z,94.50
2022-08-21T08:10:53.511Z,95.61
2022-08-21T08:13:20.239Z,92.84
2022-08-21T08:15:46.871Z,95.23
2022-08-21T08:18:13.564Z,97.27
2022-08-21T08:20:40.316Z,93.33
2022-08-21T08:23:06.943Z,96.01
2022-08-21T08:25:36.847Z,94.20
2022-08-21T08:28:16.265Z,95.46
2022-08-21T08:30:46.885Z,93.80
2022-08-21T08:33:15.078Z,91.62
2022-08-21T08:35:44.285Z,91.91
2022-08-21T08:38:10.920Z,91.46
2022-08-21T08:40:38.754Z,90.89
2022-08-21T08:43:09.856Z,91.87
2022-08-21T08:45:46.883Z,91.96
2022-08-21T08:48:19.151Z,93.79
2022-08-21T08:50:58.452Z,92.25
2022-08-21T08:53:36.531Z,90.37
2022-08-21T08:56:05.839Z,86.70
2022-08-21T08:58:35.504Z,90.18
2022-08-21T09:01:02.712Z,88.95
2022-08-21T09:03:29.568Z,87.39
2022-08-21T09:06:28.352Z,84.57
2022-08-21T09:09:07.115Z,85.95
2022-08-21T09:11:42.621Z,85.19
2022-08-21T09:14:16.145Z,88.99
2022-08-21T09:16:58.657Z,86.52
2022-08-21T09:20:03.975Z,85.99
2022-08-21T09:22:50.002Z,84.16
2022-08-21T09:25:24.254Z,83.36
2022-08-21T09:27:51.494Z,83.30
2022-08-21T09:30:19.283Z,84.62
2022-08-21T09:32:45.989Z,81.33
2022-08-21T09:35:24.499Z,81.37
2022-08-21T09:38:04.111Z,79.02
2022-08-21T09:40:36.980Z,80.30
2022-08-21T09:43:04.955Z,76.29
2022-08-21T09:45:34.080Z,81.50
2022-08-21T09:48:26.849Z,81.85
2022-08-21T09:50:54.884Z,81.56
2022-08-21T09:53:22.441Z,80.45
2022-08-21T09:55:56.316Z,84.03
2022-08-21T09:58:32.536Z,81.28
2022-08-21T10:01:02.467Z,79.23
2022-08-21T10:03:30.380Z,78.89
2022-08-21T10:06:09.363Z,80.03
2022-08-21T10:08:39.406Z,77.88
2022-08-21T10:11:16.639Z,77.91
2022-08-21T10:13:49.272Z,79.97
2022-08-21T10:16:44.322Z,77.38
2022-08-21T10:19:31.109Z,79.49
2022-08-21T10:22:14.192Z,80.47
2022-08-21T10:24:55.066Z,78.18
2022-08-21T10:27:43.338Z,81.44
2022-08-21T10:30:18.883Z,81.50
2022-08-21T10:33:24.886Z,79.70
2022-08-21T10:36:15.238Z,80.09
2022-08-21T10:39:17.477Z,78.93
2022-08-21T10:42:42.463Z,78.69
2022-08-21T10:45:16.974Z,78.59
2022-08-21T10:47:51.528Z,79.48
2022-08-21T10:50:33.135Z,77.57
2022-08-21T10:53:33.976Z,79.90
2022-08-21T10:56:20.652Z,78.72
2022-08-21T10:59:17.351Z,80.13
2022-08-21T11:02:04.955Z,78.18
2022-08-21T11:04:43.380Z,77.21
2022-08-21T11:07:27.575Z,80.04
2022-08-21T11:10:27.080Z,80.19
2022-08-21T11:13:08.303Z,80.32
2022-08-21T11:15:56.476Z,82.54
2022-08-21T11:18:35.634Z,82.39
2022-08-21T11:21:29.132Z,81.08
2022-08-21T11:24:02.377Z,80.87
2022-08-21T11:26:38.891Z,81.87
2022-08-21T11:29:14.879Z,83.49
2022-08-21T11:31:56.772Z,82.91
2022-08-21T11:34:57.072Z,81.98
2022-08-21T11:37:24.443Z,81.65
2022-08-21T11:39:53.945Z,82.49
2022-08-21T11:42:46.770Z,83.62
2022-08-21T11:45:33.825Z,86.40
2022-08-21T11:48:14.876Z,84.00
2022-08-21T11:50:45.256Z,83.42
2022-08-21T11:53:31.727Z,85.20
2022-08-21T11:56:06.654Z,85.35
2022-08-21T11:58:47.256Z,85.84
2022-08-21T12:01:20.490Z,84.25
2022-08-21T12:04:09.948Z,86.28
2022-08-21T12:06:42.116Z,85.95
2022-08-21T12:09:32.841Z,84.87
2022-08-21T12:12:06.238Z,84.75
2022-08-21T12:14:45.852Z,84.00
2022-08-21T12:17:22.153Z,82.33
2022-08-21T12:20:20.894Z,81.22
2022-08-21T12:23:15.945Z,79.27
2022-08-21T12:25:59.880Z,80.10
2022-08-21T12:28:28.715Z,78.71
2022-08-21T12:30:58.102Z,78.20
2022-08-21T12:33:30.600Z,75.63
2022-08-21T12:36:13.026Z,80.84
2022-08-21T12:39:04.752Z,78.89
2022-08-21T12:42:01.992Z,79.89
2022-08-21T12:44:50.840Z,81.61
2022-08-21T12:47:43.450Z,81.58
2022-08-21T12:50:14.740Z,79.02
2022-08-21T12:53:18.621Z,79.36
2022-08-21T12:55:47.383Z,79.94
2022-08-21T12:58:22.588Z,83.05
2022-08-21T13:01:04.460Z,81.27
2022-08-21T13:03:33.064Z,81.33
2022-08-21T13:06:00.254Z,81.69
2022-08-21T13:08:28.670Z,79.71
2022-08-21T13:11:13.597Z,77.60
2022-08-21T13:13:46.980Z,75.96
2022-08-21T13:16:27.827Z,77.08
2022-08-21T13:19:05.663Z,81.70
2022-08-21T13:21:36.103Z,81.99
2022-08-21T13:24:38.761Z,82.12
2022-08-21T13:27:02.500Z,85.75
2022-08-21T13:29:32.921Z,86.60
2022-08-21T13:32:02.834Z,84.67
2022-08-21T13:34:37.546Z,80.66
2022-08-21T13:37:09.896Z,85.46
2022-08-21T13:39:36.789Z,85.99
2022-08-21T13:42:11.784Z,90.71
2022-08-21T13:44:44.658Z,90.88
2022-08-21T13:47:14.252Z,89.49
2022-08-21T13:49:45.115Z,91.28
2022-08-21T13:52:25.891Z,93.36
2022-08-21T13:54:56.412Z,95.86
2022-08-21T13:57:41.305Z,91.19
2022-08-21T14:00:16.151Z,93.83
2022-08-21T14:02:46.463Z,92.49
2022-08-21T14:05:34.267Z,91.88
2022-08-21T14:08:09.603Z,92.26
2022-08-21T14:10:43.471Z,95.21
2022-08-21T14:13:55.993Z,95.59
2022-08-21T14:16:28.831Z,90.77
2022-08-21T14:19:03.714Z,95.22
2022-08-21T14:21:39.303Z,95.65
2022-08-21T14:24:06.117Z,94.40
2022-08-21T14:26:35.294Z,100.00
2022-08-21T14:29:02.368Z,100.00
2022-08-21T14:31:37.024Z,100.00
2022-08-21T14:34:19.265Z,100.00
2022-08-21T14:36:47.993Z,100.00
2022-08-21T14:39:14.733Z,100.00
2022-08-21T14:41:42.431Z,100.00
2022-08-21T14:44:10.171Z,100.00
2022-08-21T14:46:43.973Z,100.00
2022-08-21T14:49:24.862Z,100.00
2022-08-21T14:51:54.176Z,100.00
2022-08-21T14:54:23.206Z,100.00
2022-08-21T14:57:02.019Z,100.00
2022-08-21T14:59:28.753Z,100.00
2022-08-21T15:01:55.378Z,100.00
2022-08-21T15:04:21.971Z,100.00
2022-08-21T15:06:48.598Z,100.00
2022-08-21T15:09:15.285Z,100.00
2022-08-21T15:11:43.270Z,100.00
2022-08-21T15:14:21.426Z,100.00
2022-08-21T15:16:49.176Z,100.00
2022-08-21T15:19:15.849Z,100.00
2022-08-21T15:21:42.479Z,100.00
2022-08-21T15:24:09.253Z,100.00
2022-08-21T15:26:37.582Z,100.00
2022-08-21T15:29:07.031Z,100.00
2022-08-21T15:31:34.228Z,100.00
2022-08-21T15:34:00.860Z,100.00
2022-08-21T15:36:27.750Z,100.00
2022-08-21T15:38:54.378Z,100.00
2022-08-21T15:41:21.103Z,100.00
2022-08-21T15:43:51.570Z,100.00
2022-08-21T15:46:20.179Z,100.00
2022-08-21T15:48:47.252Z,100.00
2022-08-21T15:51:15.963Z,100.00
2022-08-21T15:53:42.645Z,100.00
2022-08-21T15:56:18.089Z,100.00
2022-08-21T15:58:44.800Z,100.00
2022-08-21T16:01:11.545Z,100.00
2022-08-21T16:03:39.421Z,100.00
2022-08-21T16:06:06.235Z,100.00
2022-08-21T16:08:32.913Z,100.00
2022-08-21T16:11:01.337Z,100.00
2022-08-21T16:13:36.594Z,100.00
2022-08-21T16:16:03.789Z,100.00
2022-08-21T16:18:30.484Z,100.00
2022-08-21T16:20:57.194Z,100.00
2022-08-21T16:23:23.929Z,100.00
2022-08-21T16:25:51.181Z,100.00
2022-08-21T16:28:20.370Z,100.00
2022-08-21T16:30:49.876Z,100.00
2022-08-21T16:33:34.924Z,100.00
2022-08-21T16:36:04.325Z,100.00
2022-08-21T16:38:32.176Z,100.00
2022-08-21T16:41:00.148Z,100.00
2022-08-21T16:43:29.572Z,100.00
2022-08-21T16:45:58.168Z,100.00
2022-08-21T16:48:25.191Z,100.00
2022-08-21T16:50:51.977Z,100.00
2022-08-21T16:53:18.600Z,100.00
2022-08-21T16:55:48.060Z,100.00
2022-08-21T16:58:35.658Z,100.00
2022-08-21T17:01:07.607Z,100.00
2022-08-21T17:03:41.048Z,100.00
2022-08-21T17:06:08.767Z,100.00
2022-08-21T17:08:35.599Z,100.00
2022-08-21T17:11:04.040Z,100.00
2022-08-21T17:13:30.957Z,100.00
2022-08-21T17:15:57.851Z,100.00
2022-08-21T17:18:26.540Z,100.00
2022-08-21T17:20:53.304Z,100.00
2022-08-21T17:23:20.542Z,100.00
2022-08-21T17:25:51.859Z,100.00
2022-08-21T17:28:25.720Z,100.00
2022-08-21T17:30:54.849Z,100.00
2022-08-21T17:33:23.322Z,100.00
2022-08-21T17:35:49.982Z,100.00
2022-08-21T17:38:16.651Z,100.00
2022-08-21T17:40:44.271Z,100.00
2022-08-21T17:43:13.177Z,100.00
2022-08-21T17:45:41.301Z,100.00
2022-08-21T17:48:08.174Z,100.00
2022-08-21T17:50:35.109Z,100.00
2022-08-21T17:53:01.856Z,100.00
2022-08-21T17:55:29.605Z,100.00
2022-08-21T17:57:57.425Z,100.00
2022-08-21T18:00:26.608Z,100.00
2022-08-21T18:03:05.240Z,100.00
2022-08-21T18:05:32.006Z,100.00
2022-08-21T18:07:58.959Z,100.00
2022-08-21T18:10:26.278Z,100.00
2022-08-21T18:12:53.364Z,100.00
2022-08-21T18:15:20.503Z,100.00
2022-08-21T18:17:50.134Z,100.00
2022-08-21T18:20:19.210Z,100.00
2022-08-21T18:22:46.059Z,100.00
2022-08-21T18:25:13.607Z,100.00
2022-08-21T18:27:42.150Z,100.00
2022-08-21T18:30:09.401Z,100.00
2022-08-21T18:32:36.563Z,100.00
2022-08-21T18:35:05.979Z,100.00
2022-08-21T18:37:33.143Z,100.00
2022-08-21T18:40:00.254Z,100.00
2022-08-21T18:42:29.482Z,100.00
2022-08-21T18:45:01.665Z,100.00
2022-08-21T18:47:32.595Z,100.00
2022-08-21T18:49:59.800Z,100.00
2022-08-21T18:52:28.570Z,100.00
2022-08-21T18:54:55.545Z,100.00
2022-08-21T18:57:25.415Z,100.00
2022-08-21T18:59:52.045Z,100.00
2022-08-21T19:02:18.995Z,100.00
2022-08-21T19:04:45.644Z,100.00
2022-08-21T19:07:14.335Z,100.00
2022-08-21T19:09:52.660Z,100.00
2022-08-21T19:12:29.511Z,100.00
2022-08-21T19:14:56.634Z,100.00
2022-08-21T19:17:25.673Z,100.00
2022-08-21T19:19:52.721Z,100.00
2022-08-21T19:22:19.339Z,100.00
2022-08-21T19:24:49.814Z,100.00
2022-08-21T19:27:17.978Z,100.00
2022-08-21T19:29:44.999Z,100.00
2022-08-21T19:32:12.659Z,100.00
2022-08-21T19:34:40.684Z,100.00
2022-08-21T19:37:11.006Z,100.00
2022-08-21T19:39:37.894Z,100.00
2022-08-21T19:42:05.651Z,100.00
2022-08-21T19:44:32.859Z,100.00
2022-08-21T19:46:59.794Z,100.00
2022-08-21T19:49:34.424Z,100.00
2022-08-21T19:52:02.289Z,100.00
2022-08-21T19:54:39.556Z,100.00
2022-08-21T19:57:08.808Z,100.00
2022-08-21T19:59:37.051Z,100.00
2022-08-21T20:02:03.733Z,100.00
2022-08-21T20:04:30.362Z,100.00
2022-08-21T20:06:57.154Z,100.00
2022-08-21T20:09:23.990Z,100.00
2022-08-21T20:11:54.318Z,100.00
2022-08-21T20:14:25.895Z,100.00
2022-08-21T20:17:04.856Z,100.00
2022-08-21T20:19:32.009Z,100.00
2022-08-21T20:21:58.886Z,100.00
2022-08-21T20:24:27.345Z,100.00
2022-08-21T20:26:54.502Z,100.00
2022-08-21T20:29:23.924Z,100.00
2022-08-21T20:31:52.700Z,100.00
2022-08-21T20:34:19.485Z,100.00
2022-08-21T20:36:47.466Z,100.00
2022-08-21T20:39:14.977Z,100.00
2022-08-21T20:41:43.894Z,100.00
2022-08-21T20:44:15.876Z,100.00
2022-08-21T20:46:43.412Z,100.00
2022-08-21T20:49:20.045Z,100.00
2022-08-21T20:51:50.788Z,100.00
2022-08-21T20:54:33.588Z,100.00
2022-08-21T20:57:13.630Z,100.00
2022-08-21T20:59:52.741Z,100.00
2022-08-21T21:02:26.542Z,100.00
2022-08-21T21:05:20.652Z,100.00
2022-08-21T21:08:11.877Z,100.00
2022-08-21T21:10:49.588Z,100.00
2022-08-21T21:13:53.534Z,100.00
2022-08-21T21:16:36.232Z,100.00
2022-08-21T21:19:37.339Z,100.00
2022-08-21T21:22:10.224Z,100.00
2022-08-21T21:25:04.300Z,100.00
2022-08-21T21:27:43.192Z,100.00
2022-08-21T21:30:23.040Z,100.00
2022-08-21T21:32:50.745Z,100.00
2022-08-21T21:35:32.240Z,100.00
2022-08-21T21:38:13.599Z,100.00
2022-08-21T21:41:05.748Z,100.00
2022-08-21T21:44:03.457Z,100.00
2022-08-21T21:46:56.992Z,100.00
2022-08-21T21:49:51.788Z,100.00
2022-08-21T21:52:27.624Z,100.00
2022-08-21T21:55:40.146Z,100.00
2022-08-21T21:58:18.714Z,100.00
2022-08-21T22:01:03.506Z,100.00
2022-08-21T22:04:00.291Z,100.00
2022-08-21T22:06:33.233Z,100.00
2022-08-21T22:08:59.882Z,100.00
2022-08-21T22:11:55.522Z,100.00
2022-08-21T22:14:32.177Z,100.00
2022-08-21T22:17:07.733Z,100.00
2022-08-21T22:19:40.844Z,100.00
2022-08-21T22:22:15.112Z,100.00
2022-08-21T22:24:46.768Z,100.00
2022-08-21T22:27:22.206Z,100.00
2022-08-21T22:29:52.873Z,100.00
2022-08-21T22:32:33.478Z,100.00
2022-08-21T22:35:10.190Z,100.00
2022-08-21T22:37:43.538Z,100.00
2022-08-21T22:40:13.588Z,100.00
2022-08-21T22:42:42.636Z,100.00
2022-08-21T22:45:12.347Z,100.00
2022-08-21T22:47:44.906Z,100.00
2022-08-21T22:50:41.732Z,100.00
2022-08-21T22:53:10.082Z,100.00
2022-08-21T22:55:45.272Z,100.00
2022-08-21T22:58:13.101Z,100.00
2022-08-21T23:00:45.571Z,100.00
2022-08-21T23:03:25.582Z,100.00
2022-08-21T23:05:53.414Z,100.00
2022-08-21T23:08:38.223Z,100.00
2022-08-21T23:11:13.440Z,100.00
2022-08-21T23:13:44.919Z,100.00
2022-08-21T23:16:23.413Z,100.00
2022-08-21T23:19:19.141Z,100.00
2022-08-21T23:21:54.909Z,100.00
2022-08-21T23:24:33.680Z,100.00
2022-08-21T23:27:32.001Z,100.00
2022-08-21T23:30:25.066Z,100.00
2022-08-21T23:32:54.066Z,100.00
2022-08-21T23:35:24.982Z,100.00
2022-08-21T23:38:29.566Z,100.00
2022-08-21T23:41:11.252Z,100.00
2022-08-21T23:44:13.209Z,100.00
2022-08-21T23:47:01.492Z,100.00
2022-08-21T23:49:44.056Z,100.00
2022-08-21T23:52:26.213Z,100.00
2022-08-21T23:55:11.757Z,100.00
2022-08-21T23:57:47.469Z,100.00
